createdAt,value
2018-12-29T00:01:12.869Z,16.37
2018-12-29T00:06:15.060Z,16.23
2018-12-29T00:11:17.777Z,17.40
2018-12-29T00:16:20.187Z,18.87
2018-12-29T00:21:22.672Z,17.67
2018-12-29T00:26:24.878Z,17.30
2018-12-29T00:31:27.091Z,18.30
2018-12-29T00:36:29.303Z,17.47
2018-12-29T00:41:31.841Z,18.00
2018-12-29T00:46:34.495Z,18.77
2018-12-29T00:51:36.685Z,17.60
2018-12-29T00:56:38.838Z,18.70
2018-12-29T01:01:40.999Z,18.47
2018-12-29T01:06:43.149Z,18.97
2018-12-29T01:11:45.324Z,17.73
2018-12-29T01:16:47.589Z,17.80
2018-12-29T01:21:50.207Z,18.27
2018-12-29T01:26:52.630Z,17.97
2018-12-29T01:31:54.853Z,18.37
2018-12-29T01:36:57.679Z,19.27
2018-12-29T01:41:59.896Z,19.27
2018-12-29T01:47:02.638Z,20.07
2018-12-29T01:52:05.513Z,19.83
2018-12-29T01:57:08.257Z,20.53
2018-12-29T02:02:11.139Z,22.47
2018-12-29T02:07:14.019Z,22.30
2018-12-29T02:12:16.478Z,22.87
2018-12-29T02:17:19.172Z,23.33
2018-12-29T02:22:21.434Z,24.63
2018-12-29T02:27:23.823Z,25.57
2018-12-29T02:32:26.242Z,23.57
2018-12-29T02:37:28.451Z,24.37
2018-12-29T02:42:30.657Z,23.57
2018-12-29T02:47:33.551Z,23.90
2018-12-29T02:52:37.206Z,24.13
2018-12-29T02:57:39.637Z,23.43
2018-12-29T03:02:41.853Z,22.77
2018-12-29T03:07:44.061Z,23.83
2018-12-29T03:12:46.551Z,23.30
2018-12-29T03:17:48.750Z,21.67
2018-12-29T03:22:51.814Z,21.90
2018-12-29T03:27:54.253Z,22.03
2018-12-29T03:32:56.424Z,22.90
2018-12-29T03:37:59.329Z,22.03
2018-12-29T03:43:02.015Z,23.00
2018-12-29T03:48:04.205Z,22.83
2018-12-29T03:53:06.573Z,22.50
2018-12-29T03:58:09.220Z,23.27
2018-12-29T04:03:11.841Z,24.17
2018-12-29T04:08:14.282Z,23.53
2018-12-29T04:13:16.998Z,23.30
2018-12-29T04:18:19.428Z,23.13
2018-12-29T04:23:22.352Z,23.90
2018-12-29T04:28:24.656Z,23.43
2018-12-29T04:33:27.087Z,23.27
2018-12-29T04:38:29.747Z,23.30
2018-12-29T04:43:32.204Z,24.23
2018-12-29T04:48:34.757Z,25.17
2018-12-29T04:53:37.684Z,25.67
2018-12-29T04:58:39.853Z,25.27
2018-12-29T05:03:42.047Z,25.27
2018-12-29T05:08:44.949Z,24.57
2018-12-29T05:13:48.127Z,24.67
2018-12-29T05:18:50.782Z,24.73
2018-12-29T05:23:53.590Z,25.43
2018-12-29T05:28:55.801Z,24.47
2018-12-29T05:33:58.336Z,26.10
2018-12-29T05:39:00.794Z,24.97
2018-12-29T05:44:03.007Z,27.03
2018-12-29T05:49:05.188Z,22.20
2018-12-29T05:54:07.592Z,24.10
2018-12-29T05:59:10.127Z,24.03
2018-12-29T06:04:12.410Z,23.97
2018-12-29T06:09:14.591Z,23.83
2018-12-29T06:14:17.621Z,24.37
2018-12-29T06:19:20.777Z,22.57
2018-12-29T06:24:22.964Z,23.47
2018-12-29T06:29:25.656Z,24.53
2018-12-29T06:34:28.623Z,23.33
2018-12-29T06:39:31.068Z,23.43
2018-12-29T06:44:33.953Z,23.23
2018-12-29T06:49:36.267Z,23.77
2018-12-29T06:54:38.439Z,23.70
2018-12-29T06:59:40.603Z,23.17
2018-12-29T07:04:43.515Z,21.93
2018-12-29T07:09:46.188Z,23.40
2018-12-29T07:14:48.900Z,23.47
2018-12-29T07:19:51.781Z,22.80
2018-12-29T07:24:54.630Z,23.23
2018-12-29T07:29:57.310Z,24.30
2018-12-29T07:34:59.995Z,23.13
2018-12-29T07:40:02.405Z,20.40
2018-12-29T07:45:05.305Z,23.10
2018-12-29T07:50:07.480Z,23.63
2018-12-29T07:55:09.854Z,23.90
2018-12-29T08:00:12.140Z,23.27
2018-12-29T08:05:14.589Z,24.23
2018-12-29T08:10:16.857Z,24.67
2018-12-29T08:15:19.360Z,24.27
2018-12-29T08:20:21.603Z,24.13
2018-12-29T08:25:23.758Z,24.23
2018-12-29T08:30:26.724Z,23.73
2018-12-29T08:35:29.165Z,23.60
2018-12-29T08:40:31.351Z,24.17
2018-12-29T08:45:33.815Z,24.60
2018-12-29T08:50:36.016Z,24.77
2018-12-29T08:55:38.768Z,25.27
2018-12-29T09:00:41.152Z,25.27
2018-12-29T09:05:44.056Z,25.53
2018-12-29T09:10:46.183Z,24.80
2018-12-29T09:15:48.429Z,25.20
2018-12-29T09:20:50.631Z,24.77
2018-12-29T09:25:53.016Z,23.27
2018-12-29T09:30:55.301Z,22.67
2018-12-29T09:35:57.748Z,22.27
2018-12-29T09:41:00.122Z,20.67
2018-12-29T09:46:02.306Z,21.33
2018-12-29T09:51:05.229Z,21.33
2018-12-29T09:56:08.204Z,22.50
2018-12-29T10:01:11.159Z,20.73
2018-12-29T10:06:13.704Z,20.40
2018-12-29T10:11:16.012Z,21.80
2018-12-29T10:16:18.270Z,21.47
2018-12-29T10:21:20.743Z,22.03
2018-12-29T10:26:23.028Z,22.63
2018-12-29T10:31:25.820Z,22.47
2018-12-29T10:36:29.181Z,22.57
2018-12-29T10:41:32.306Z,23.27
2018-12-29T10:46:34.738Z,22.40
2018-12-29T10:51:37.400Z,22.73
2018-12-29T10:56:39.829Z,23.40
2018-12-29T11:01:42.026Z,22.23
2018-12-29T11:06:44.324Z,21.27
2018-12-29T11:11:46.858Z,21.33
2018-12-29T11:16:50.564Z,20.30
2018-12-29T11:21:53.054Z,20.57
2018-12-29T11:26:55.771Z,20.67
2018-12-29T11:31:59.075Z,21.57
2018-12-29T11:37:01.251Z,20.83
2018-12-29T11:42:03.800Z,20.13
2018-12-29T11:47:06.524Z,20.97
2018-12-29T11:52:09.805Z,21.23
2018-12-29T11:57:12.394Z,21.27
2018-12-29T12:02:15.135Z,22.27
2018-12-29T12:07:17.763Z,20.90
2018-12-29T12:12:20.869Z,23.07
2018-12-29T12:17:24.157Z,22.20
2018-12-29T12:22:26.444Z,21.40
2018-12-29T12:27:28.815Z,20.77
2018-12-29T12:32:31.633Z,21.30
2018-12-29T12:37:34.182Z,21.60
2018-12-29T12:42:36.647Z,22.03
2018-12-29T12:47:39.557Z,22.47
2018-12-29T12:52:41.972Z,20.90
2018-12-29T12:57:44.219Z,20.77
2018-12-29T13:02:47.118Z,18.97
2018-12-29T13:07:49.807Z,18.50
2018-12-29T13:12:52.475Z,18.37
2018-12-29T13:17:54.672Z,18.53
2018-12-29T13:22:56.858Z,18.50
2018-12-29T13:27:59.899Z,19.23
2018-12-29T13:33:02.254Z,19.40
2018-12-29T13:38:04.563Z,18.43
2018-12-29T13:43:07.292Z,17.93
2018-12-29T13:48:09.708Z,18.77
2018-12-29T13:53:12.471Z,19.70
2018-12-29T13:58:14.625Z,19.40
2018-12-29T14:03:16.890Z,19.00
2018-12-29T14:08:19.940Z,18.30
2018-12-29T14:13:22.625Z,18.43
2018-12-29T14:18:28.358Z,19.17
2018-12-29T14:23:29.139Z,18.13
2018-12-29T14:28:31.330Z,18.53
2018-12-29T14:33:33.542Z,19.47
2018-12-29T14:38:36.405Z,18.50
2018-12-29T14:43:38.609Z,20.27
2018-12-29T14:48:41.632Z,19.73
2018-12-29T14:53:43.885Z,19.63
2018-12-29T14:58:46.843Z,19.50
2018-12-29T15:03:49.386Z,19.47
2018-12-29T15:08:51.535Z,20.80
2018-12-29T15:13:53.715Z,21.00
2018-12-29T15:18:56.810Z,18.57
2018-12-29T15:24:00.006Z,19.23
2018-12-29T15:29:02.543Z,19.03
2018-12-29T15:34:05.318Z,21.17
2018-12-29T15:39:08.334Z,18.10
2018-12-29T15:44:10.791Z,19.00
2018-12-29T15:49:12.981Z,19.40
2018-12-29T15:54:15.932Z,20.77
2018-12-29T15:59:18.134Z,20.97
2018-12-29T16:04:20.885Z,25.20
2018-12-29T16:09:24.057Z,20.17
2018-12-29T16:14:27.197Z,19.23
2018-12-29T16:19:29.437Z,18.60
2018-12-29T16:24:32.454Z,19.00
2018-12-29T16:29:35.649Z,17.70
2018-12-29T16:34:37.836Z,16.83
2018-12-29T16:39:40.042Z,16.37
2018-12-29T16:44:42.383Z,15.13
2018-12-29T16:49:44.726Z,15.70
2018-12-29T16:54:47.637Z,14.77
2018-12-29T16:59:50.303Z,14.27
2018-12-29T17:04:52.745Z,14.53
2018-12-29T17:09:54.926Z,14.10
2018-12-29T17:14:58.441Z,12.70
2018-12-29T17:20:00.720Z,12.50
2018-12-29T17:25:03.949Z,12.83
2018-12-29T17:30:06.458Z,11.57
2018-12-29T17:35:09.060Z,12.63
2018-12-29T17:40:11.378Z,12.07
2018-12-29T17:45:14.247Z,12.10
2018-12-29T17:50:16.544Z,11.90
2018-12-29T17:55:19.461Z,11.67
2018-12-29T18:00:21.916Z,10.73
2018-12-29T18:05:24.072Z,10.43
2018-12-29T18:10:26.744Z,12.30
2018-12-29T18:15:29.018Z,11.23
2018-12-29T18:20:31.297Z,10.77
2018-12-29T18:25:33.504Z,9.60
2018-12-29T18:30:35.850Z,10.70
2018-12-29T18:35:38.005Z,11.43
2018-12-29T18:40:41.324Z,11.50
2018-12-29T18:45:43.555Z,9.80
2018-12-29T18:50:46.147Z,10.70
2018-12-29T18:55:49.621Z,10.00
2018-12-29T19:00:51.918Z,10.00
2018-12-29T19:05:54.729Z,9.83
2018-12-29T19:10:57.424Z,11.00
2018-12-29T19:16:00.458Z,11.30
2018-12-29T19:21:03.095Z,11.73
2018-12-29T19:26:06.011Z,11.03
2018-12-29T19:31:09.371Z,10.53
2018-12-29T19:36:11.524Z,11.87
2018-12-29T19:41:13.925Z,12.37
2018-12-29T19:46:16.355Z,12.73
2018-12-29T19:51:19.381Z,14.57
2018-12-29T19:56:22.115Z,14.47
2018-12-29T20:01:24.276Z,14.77
2018-12-29T20:06:26.726Z,14.63
2018-12-29T20:11:29.151Z,16.53
2018-12-29T20:16:31.676Z,15.87
2018-12-29T20:21:34.799Z,14.77
2018-12-29T20:26:38.180Z,15.67
2018-12-29T20:31:40.452Z,15.93
2018-12-29T20:36:42.587Z,18.03
2018-12-29T20:41:45.139Z,15.37
2018-12-29T20:46:47.365Z,16.27
2018-12-29T20:51:50.017Z,14.93
2018-12-29T20:56:52.700Z,15.20
2018-12-29T21:01:55.160Z,16.17
2018-12-29T21:06:57.869Z,14.90
2018-12-29T21:12:00.377Z,14.17
2018-12-29T21:17:02.715Z,14.57
2018-12-29T21:22:05.448Z,14.70
2018-12-29T21:27:08.272Z,14.07
2018-12-29T21:32:10.421Z,14.67
2018-12-29T21:37:12.581Z,14.90
2018-12-29T21:42:15.261Z,11.93
2018-12-29T21:47:18.126Z,13.07
2018-12-29T21:52:20.321Z,14.07
2018-12-29T21:57:22.463Z,13.10
2018-12-29T22:02:25.206Z,14.20
2018-12-29T22:07:27.912Z,13.33
2018-12-29T22:12:30.603Z,13.63
2018-12-29T22:17:33.241Z,13.43
2018-12-29T22:22:36.137Z,12.30
2018-12-29T22:27:38.359Z,12.50
2018-12-29T22:32:40.662Z,12.40
2018-12-29T22:37:42.847Z,11.87
2018-12-29T22:42:45.158Z,11.03
2018-12-29T22:47:47.976Z,11.67
2018-12-29T22:52:50.672Z,11.90
2018-12-29T22:57:53.181Z,10.90
2018-12-29T23:02:55.356Z,11.30
2018-12-29T23:07:58.642Z,10.83
2018-12-29T23:13:01.395Z,10.53
2018-12-29T23:18:04.624Z,11.40
2018-12-29T23:23:07.848Z,10.67
2018-12-29T23:28:10.496Z,10.40
2018-12-29T23:33:13.199Z,9.93
2018-12-29T23:38:15.494Z,10.73
2018-12-29T23:43:17.679Z,10.80
2018-12-29T23:48:19.884Z,10.40
2018-12-29T23:53:22.592Z,10.43
2018-12-29T23:58:25.385Z,10.70
